EBLG/LGG METAR and TAF weather

Enter ICAO airport designator
Station Type Date Time Source
EBLG METAR 2018/01/21 12:20 UTC NOAA

EBLG 211220Z 22008KT 7000 SCT007 03/02 Q1016 NOSIG


Station Type Date Time Source
EBLG Decoded METAR 2018/01/21 12:20 UTC NOAA

Bierset, Belgium (EBLG) 50-39N 005-27E 178M
Jan 21, 2018 - 07:20 AM EST / 2018.01.21 1220 UTC
Wind: from the SW (220 degrees) at 9 MPH (8 KT):0
Visibility: 4 mile(s):0
Sky conditions: partly cloudy
Temperature: 37 F (3 C)
Dew Point: 35 F (2 C)
Relative Humidity: 93%
Pressure (altimeter): 30.00 in. Hg (1016 hPa)
ob: EBLG 211220Z 22008KT 7000 SCT007 03/02 Q1016 NOSIG
cycle: 12

Station Type Date Time Source
EBLG TAF 2018/01/21 12:48 UTC NOAA

TAF COR EBLG 211120Z 2112/2218 23005KT 6000 SCT007
BECMG 2120/2122 15011KT
TEMPO 2120/2209 BKN011 PROB40
TEMPO 2121/2201 3000 SNRA RADZ BKN004
BECMG 2201/2203 21010KT PROB40
TEMPO 2201/2205 BKN007 PROB30
TEMPO 2202/2205 0800 FG BKN002
BECMG 2207/2209 28007KT


Example: see airport list